sensor_id;sensor_type;location;lat;lon;timestamp;P1;durP1;ratioP1;P2;durP2;ratioP2
4806;SDS011;2417;52.482;13.432;2023-06-26T00:01:25;46.50;;;21.33;;
4806;SDS011;2417;52.482;13.432;2023-06-26T00:03:56;60.97;;;26.20;;
4806;SDS011;2417;52.482;13.432;2023-06-26T00:06:25;36.40;;;16.60;;
4806;SDS011;2417;52.482;13.432;2023-06-26T00:08:53;47.10;;;20.63;;
4806;SDS011;2417;52.482;13.432;2023-06-26T00:11:22;38.50;;;16.90;;
4806;SDS011;2417;52.482;13.432;2023-06-26T00:13:50;39.57;;;18.03;;
4806;SDS011;2417;52.482;13.432;2023-06-26T00:16:18;45.47;;;18.07;;
4806;SDS011;2417;52.482;13.432;2023-06-26T00:18:46;41.90;;;19.60;;
4806;SDS011;2417;52.482;13.432;2023-06-26T00:21:14;45.60;;;18.27;;
4806;SDS011;2417;52.482;13.432;2023-06-26T00:23:43;38.70;;;17.20;;
4806;SDS011;2417;52.482;13.432;2023-06-26T00:26:11;38.27;;;16.73;;
4806;SDS011;2417;52.482;13.432;2023-06-26T00:28:39;39.43;;;16.70;;
4806;SDS011;2417;52.482;13.432;2023-06-26T00:31:07;42.00;;;17.70;;
4806;SDS011;2417;52.482;13.432;2023-06-26T00:33:35;41.50;;;17.50;;
4806;SDS011;2417;52.482;13.432;2023-06-26T00:36:03;42.43;;;18.10;;
4806;SDS011;2417;52.482;13.432;2023-06-26T00:38:31;39.73;;;17.13;;
4806;SDS011;2417;52.482;13.432;2023-06-26T00:41:00;39.80;;;17.87;;
4806;SDS011;2417;52.482;13.432;2023-06-26T00:43:28;39.47;;;18.13;;
4806;SDS011;2417;52.482;13.432;2023-06-26T00:45:56;38.50;;;17.17;;
4806;SDS011;2417;52.482;13.432;2023-06-26T00:48:24;39.00;;;18.20;;
4806;SDS011;2417;52.482;13.432;2023-06-26T00:50:52;39.43;;;17.77;;
4806;SDS011;2417;52.482;13.432;2023-06-26T00:53:20;39.57;;;17.67;;
4806;SDS011;2417;52.482;13.432;2023-06-26T00:55:49;38.30;;;17.23;;
4806;SDS011;2417;52.482;13.432;2023-06-26T00:58:18;43.70;;;18.83;;
4806;SDS011;2417;52.482;13.432;2023-06-26T01:00:47;40.73;;;18.33;;
4806;SDS011;2417;52.482;13.432;2023-06-26T01:03:16;42.40;;;18.80;;
4806;SDS011;2417;52.482;13.432;2023-06-26T01:05:43;43.27;;;19.97;;
4806;SDS011;2417;52.482;13.432;2023-06-26T01:08:12;41.70;;;18.57;;
4806;SDS011;2417;52.482;13.432;2023-06-26T01:10:41;54.33;;;18.20;;
4806;SDS011;2417;52.482;13.432;2023-06-26T01:13:09;41.53;;;18.90;;
4806;SDS011;2417;52.482;13.432;2023-06-26T01:15:39;36.77;;;17.47;;
4806;SDS011;2417;52.482;13.432;2023-06-26T01:18:08;42.40;;;19.27;;
4806;SDS011;2417;52.482;13.432;2023-06-26T01:20:37;42.00;;;19.07;;
4806;SDS011;2417;52.482;13.432;2023-06-26T01:23:12;40.17;;;17.60;;
4806;SDS011;2417;52.482;13.432;2023-06-26T01:25:56;37.83;;;17.50;;
4806;SDS011;2417;52.482;13.432;2023-06-26T01:28:28;37.33;;;18.00;;
4806;SDS011;2417;52.482;13.432;2023-06-26T01:30:57;40.93;;;17.47;;
4806;SDS011;2417;52.482;13.432;2023-06-26T01:33:26;40.20;;;18.87;;
4806;SDS011;2417;52.482;13.432;2023-06-26T01:35:54;42.13;;;18.57;;
4806;SDS011;2417;52.482;13.432;2023-06-26T01:38:22;43.60;;;18.57;;
4806;SDS011;2417;52.482;13.432;2023-06-26T01:40:50;36.40;;;17.33;;
4806;SDS011;2417;52.482;13.432;2023-06-26T01:43:19;41.57;;;18.33;;
4806;SDS011;2417;52.482;13.432;2023-06-26T01:45:50;39.97;;;18.20;;
4806;SDS011;2417;52.482;13.432;2023-06-26T01:48:20;40.17;;;18.33;;
4806;SDS011;2417;52.482;13.432;2023-06-26T01:50:51;39.13;;;18.23;;
4806;SDS011;2417;52.482;13.432;2023-06-26T01:53:19;38.03;;;18.60;;
4806;SDS011;2417;52.482;13.432;2023-06-26T01:55:50;38.60;;;18.87;;
4806;SDS011;2417;52.482;13.432;2023-06-26T01:58:19;39.80;;;18.43;;
4806;SDS011;2417;52.482;13.432;2023-06-26T02:00:51;40.30;;;18.27;;
4806;SDS011;2417;52.482;13.432;2023-06-26T02:03:19;39.37;;;19.00;;
4806;SDS011;2417;52.482;13.432;2023-06-26T02:05:51;38.60;;;18.77;;
4806;SDS011;2417;52.482;13.432;2023-06-26T02:08:19;40.77;;;20.63;;
4806;SDS011;2417;52.482;13.432;2023-06-26T02:10:49;40.57;;;18.77;;
4806;SDS011;2417;52.482;13.432;2023-06-26T02:13:17;40.60;;;20.07;;
4806;SDS011;2417;52.482;13.432;2023-06-26T02:15:45;41.40;;;21.10;;
4806;SDS011;2417;52.482;13.432;2023-06-26T02:18:14;41.60;;;20.17;;
4806;SDS011;2417;52.482;13.432;2023-06-26T02:20:42;44.93;;;21.33;;
4806;SDS011;2417;52.482;13.432;2023-06-26T02:23:11;42.17;;;20.40;;
4806;SDS011;2417;52.482;13.432;2023-06-26T02:25:39;43.73;;;20.13;;
4806;SDS011;2417;52.482;13.432;2023-06-26T02:28:09;47.00;;;21.13;;
4806;SDS011;2417;52.482;13.432;2023-06-26T02:30:37;40.30;;;21.20;;
4806;SDS011;2417;52.482;13.432;2023-06-26T02:33:05;41.10;;;20.57;;
4806;SDS011;2417;52.482;13.432;2023-06-26T02:35:34;39.70;;;20.10;;
4806;SDS011;2417;52.482;13.432;2023-06-26T02:38:03;40.33;;;21.07;;
4806;SDS011;2417;52.482;13.432;2023-06-26T02:40:31;42.60;;;21.33;;
4806;SDS011;2417;52.482;13.432;2023-06-26T02:43:00;42.30;;;20.60;;
4806;SDS011;2417;52.482;13.432;2023-06-26T02:45:30;41.90;;;21.50;;
4806;SDS011;2417;52.482;13.432;2023-06-26T02:47:57;41.97;;;20.67;;
4806;SDS011;2417;52.482;13.432;2023-06-26T02:50:25;43.33;;;21.13;;
4806;SDS011;2417;52.482;13.432;2023-06-26T02:53:06;41.47;;;21.40;;
4806;SDS011;2417;52.482;13.432;2023-06-26T02:55:36;42.70;;;21.37;;
4806;SDS011;2417;52.482;13.432;2023-06-26T02:58:05;40.20;;;21.00;;
4806;SDS011;2417;52.482;13.432;2023-06-26T03:00:34;40.00;;;20.83;;
4806;SDS011;2417;52.482;13.432;2023-06-26T03:03:04;44.03;;;21.90;;
4806;SDS011;2417;52.482;13.432;2023-06-26T03:05:32;41.50;;;20.70;;
4806;SDS011;2417;52.482;13.432;2023-06-26T03:08:00;43.07;;;22.10;;
4806;SDS011;2417;52.482;13.432;2023-06-26T03:10:29;43.87;;;22.80;;
4806;SDS011;2417;52.482;13.432;2023-06-26T03:12:57;46.90;;;23.77;;
4806;SDS011;2417;52.482;13.432;2023-06-26T03:15:25;45.23;;;23.50;;
4806;SDS011;2417;52.482;13.432;2023-06-26T03:17:54;46.67;;;24.67;;
4806;SDS011;2417;52.482;13.432;2023-06-26T03:20:25;50.03;;;24.97;;
4806;SDS011;2417;52.482;13.432;2023-06-26T03:22:55;45.97;;;24.73;;
4806;SDS011;2417;52.482;13.432;2023-06-26T03:25:23;50.17;;;24.90;;
4806;SDS011;2417;52.482;13.432;2023-06-26T03:28:06;48.20;;;26.10;;
4806;SDS011;2417;52.482;13.432;2023-06-26T03:30:35;48.43;;;26.20;;
4806;SDS011;2417;52.482;13.432;2023-06-26T03:33:04;53.80;;;29.07;;
4806;SDS011;2417;52.482;13.432;2023-06-26T03:35:32;48.47;;;25.27;;
4806;SDS011;2417;52.482;13.432;2023-06-26T03:38:01;50.53;;;26.20;;
4806;SDS011;2417;52.482;13.432;2023-06-26T03:40:29;46.83;;;25.13;;
4806;SDS011;2417;52.482;13.432;2023-06-26T03:42:57;50.77;;;26.10;;
4806;SDS011;2417;52.482;13.432;2023-06-26T03:45:26;47.73;;;25.30;;
4806;SDS011;2417;52.482;13.432;2023-06-26T03:47:54;48.27;;;26.50;;
4806;SDS011;2417;52.482;13.432;2023-06-26T03:50:22;50.40;;;25.43;;
4806;SDS011;2417;52.482;13.432;2023-06-26T03:52:51;47.07;;;25.17;;
4806;SDS011;2417;52.482;13.432;2023-06-26T03:55:21;45.80;;;24.57;;
4806;SDS011;2417;52.482;13.432;2023-06-26T03:57:49;47.13;;;25.43;;
4806;SDS011;2417;52.482;13.432;2023-06-26T04:00:17;49.47;;;24.97;;
4806;SDS011;2417;52.482;13.432;2023-06-26T04:02:46;47.67;;;25.20;;
4806;SDS011;2417;52.482;13.432;2023-06-26T04:05:14;45.87;;;23.17;;
4806;SDS011;2417;52.482;13.432;2023-06-26T04:07:45;48.93;;;25.87;;
4806;SDS011;2417;52.482;13.432;2023-06-26T04:10:12;46.37;;;25.53;;
4806;SDS011;2417;52.482;13.432;2023-06-26T04:12:41;51.60;;;26.27;;
4806;SDS011;2417;52.482;13.432;2023-06-26T04:15:09;47.60;;;23.47;;
4806;SDS011;2417;52.482;13.432;2023-06-26T04:17:37;47.17;;;23.73;;
4806;SDS011;2417;52.482;13.432;2023-06-26T04:20:07;47.50;;;23.20;;
4806;SDS011;2417;52.482;13.432;2023-06-26T04:22:35;45.13;;;23.87;;
4806;SDS011;2417;52.482;13.432;2023-06-26T04:25:04;45.43;;;23.07;;
4806;SDS011;2417;52.482;13.432;2023-06-26T04:27:32;50.40;;;22.87;;
4806;SDS011;2417;52.482;13.432;2023-06-26T04:30:03;47.00;;;22.27;;
4806;SDS011;2417;52.482;13.432;2023-06-26T04:32:31;45.23;;;22.00;;
4806;SDS011;2417;52.482;13.432;2023-06-26T04:34:59;51.43;;;22.50;;
4806;SDS011;2417;52.482;13.432;2023-06-26T04:37:29;50.83;;;22.30;;
4806;SDS011;2417;52.482;13.432;2023-06-26T04:39:57;44.70;;;20.70;;
4806;SDS011;2417;52.482;13.432;2023-06-26T04:42:25;46.87;;;22.33;;
4806;SDS011;2417;52.482;13.432;2023-06-26T04:44:55;49.83;;;22.30;;
4806;SDS011;2417;52.482;13.432;2023-06-26T04:47:22;45.47;;;22.70;;
4806;SDS011;2417;52.482;13.432;2023-06-26T04:49:50;54.27;;;28.83;;
4806;SDS011;2417;52.482;13.432;2023-06-26T04:52:19;47.70;;;24.00;;
4806;SDS011;2417;52.482;13.432;2023-06-26T04:54:50;51.10;;;25.63;;
4806;SDS011;2417;52.482;13.432;2023-06-26T04:57:18;49.47;;;23.30;;
4806;SDS011;2417;52.482;13.432;2023-06-26T04:59:46;50.10;;;23.10;;
4806;SDS011;2417;52.482;13.432;2023-06-26T05:02:14;55.40;;;24.53;;
4806;SDS011;2417;52.482;13.432;2023-06-26T05:04:42;54.10;;;26.60;;
4806;SDS011;2417;52.482;13.432;2023-06-26T05:07:10;49.93;;;23.10;;
4806;SDS011;2417;52.482;13.432;2023-06-26T05:09:38;47.80;;;21.27;;
4806;SDS011;2417;52.482;13.432;2023-06-26T05:12:08;49.33;;;23.90;;
4806;SDS011;2417;52.482;13.432;2023-06-26T05:14:36;45.80;;;19.47;;
4806;SDS011;2417;52.482;13.432;2023-06-26T05:17:04;46.23;;;21.17;;
4806;SDS011;2417;52.482;13.432;2023-06-26T05:19:32;49.63;;;22.00;;
4806;SDS011;2417;52.482;13.432;2023-06-26T05:22:00;52.63;;;21.97;;
4806;SDS011;2417;52.482;13.432;2023-06-26T05:24:30;45.23;;;18.43;;
4806;SDS011;2417;52.482;13.432;2023-06-26T05:26:58;43.03;;;19.03;;
4806;SDS011;2417;52.482;13.432;2023-06-26T05:29:28;42.50;;;18.80;;
4806;SDS011;2417;52.482;13.432;2023-06-26T05:31:57;41.57;;;19.00;;
4806;SDS011;2417;52.482;13.432;2023-06-26T05:34:25;43.23;;;19.70;;
4806;SDS011;2417;52.482;13.432;2023-06-26T05:36:55;52.87;;;19.77;;
4806;SDS011;2417;52.482;13.432;2023-06-26T05:39:26;45.20;;;18.97;;
4806;SDS011;2417;52.482;13.432;2023-06-26T05:41:54;45.87;;;18.27;;
4806;SDS011;2417;52.482;13.432;2023-06-26T05:44:22;47.10;;;18.47;;
4806;SDS011;2417;52.482;13.432;2023-06-26T05:46:51;40.20;;;16.43;;
4806;SDS011;2417;52.482;13.432;2023-06-26T05:49:20;39.40;;;17.03;;
4806;SDS011;2417;52.482;13.432;2023-06-26T05:51:48;42.10;;;18.60;;
4806;SDS011;2417;52.482;13.432;2023-06-26T05:54:17;39.47;;;17.73;;
4806;SDS011;2417;52.482;13.432;2023-06-26T05:56:45;44.60;;;18.13;;
4806;SDS011;2417;52.482;13.432;2023-06-26T05:59:13;45.60;;;17.80;;
4806;SDS011;2417;52.482;13.432;2023-06-26T06:01:42;48.23;;;18.40;;
4806;SDS011;2417;52.482;13.432;2023-06-26T06:04:11;44.07;;;19.17;;
4806;SDS011;2417;52.482;13.432;2023-06-26T06:06:39;41.40;;;18.37;;
4806;SDS011;2417;52.482;13.432;2023-06-26T06:09:07;37.67;;;15.00;;
4806;SDS011;2417;52.482;13.432;2023-06-26T06:11:36;39.97;;;15.73;;
4806;SDS011;2417;52.482;13.432;2023-06-26T06:14:04;37.80;;;14.23;;
4806;SDS011;2417;52.482;13.432;2023-06-26T06:16:32;37.53;;;14.70;;
4806;SDS011;2417;52.482;13.432;2023-06-26T06:18:59;36.13;;;14.60;;
4806;SDS011;2417;52.482;13.432;2023-06-26T06:21:31;37.60;;;13.43;;
4806;SDS011;2417;52.482;13.432;2023-06-26T06:23:59;33.20;;;12.60;;
4806;SDS011;2417;52.482;13.432;2023-06-26T06:26:27;33.50;;;12.00;;
4806;SDS011;2417;52.482;13.432;2023-06-26T06:28:56;32.50;;;11.43;;
4806;SDS011;2417;52.482;13.432;2023-06-26T06:31:24;32.20;;;12.30;;
4806;SDS011;2417;52.482;13.432;2023-06-26T06:33:51;31.23;;;11.20;;
4806;SDS011;2417;52.482;13.432;2023-06-26T06:36:19;37.90;;;10.80;;
4806;SDS011;2417;52.482;13.432;2023-06-26T06:38:49;33.20;;;11.00;;
4806;SDS011;2417;52.482;13.432;2023-06-26T06:41:17;27.23;;;9.70;;
4806;SDS011;2417;52.482;13.432;2023-06-26T06:43:44;27.33;;;9.50;;
4806;SDS011;2417;52.482;13.432;2023-06-26T06:46:13;30.37;;;12.00;;
4806;SDS011;2417;52.482;13.432;2023-06-26T06:48:40;26.60;;;9.37;;
4806;SDS011;2417;52.482;13.432;2023-06-26T06:51:09;28.80;;;9.27;;
4806;SDS011;2417;52.482;13.432;2023-06-26T06:53:37;32.63;;;11.03;;
4806;SDS011;2417;52.482;13.432;2023-06-26T06:56:06;25.70;;;8.83;;
4806;SDS011;2417;52.482;13.432;2023-06-26T06:58:34;26.97;;;8.93;;
4806;SDS011;2417;52.482;13.432;2023-06-26T07:01:02;25.53;;;9.13;;
4806;SDS011;2417;52.482;13.432;2023-06-26T07:03:30;25.37;;;9.07;;
4806;SDS011;2417;52.482;13.432;2023-06-26T07:05:59;28.40;;;9.27;;
4806;SDS011;2417;52.482;13.432;2023-06-26T07:08:27;26.90;;;8.73;;
4806;SDS011;2417;52.482;13.432;2023-06-26T07:10:55;25.30;;;8.27;;
4806;SDS011;2417;52.482;13.432;2023-06-26T07:13:25;24.50;;;8.30;;
4806;SDS011;2417;52.482;13.432;2023-06-26T07:15:53;25.00;;;8.13;;
4806;SDS011;2417;52.482;13.432;2023-06-26T07:18:21;30.63;;;8.67;;
4806;SDS011;2417;52.482;13.432;2023-06-26T07:20:49;25.37;;;8.10;;
4806;SDS011;2417;52.482;13.432;2023-06-26T07:23:17;24.30;;;8.13;;
4806;SDS011;2417;52.482;13.432;2023-06-26T07:25:45;27.30;;;8.70;;
4806;SDS011;2417;52.482;13.432;2023-06-26T07:28:15;26.10;;;8.50;;
4806;SDS011;2417;52.482;13.432;2023-06-26T07:30:44;26.07;;;7.80;;
4806;SDS011;2417;52.482;13.432;2023-06-26T07:33:12;23.77;;;7.70;;
4806;SDS011;2417;52.482;13.432;2023-06-26T07:35:40;23.60;;;7.70;;
4806;SDS011;2417;52.482;13.432;2023-06-26T07:38:08;27.90;;;8.23;;
4806;SDS011;2417;52.482;13.432;2023-06-26T07:40:36;23.90;;;7.80;;
4806;SDS011;2417;52.482;13.432;2023-06-26T07:43:04;23.43;;;7.27;;
4806;SDS011;2417;52.482;13.432;2023-06-26T07:45:32;25.43;;;7.20;;
4806;SDS011;2417;52.482;13.432;2023-06-26T07:48:01;26.00;;;7.37;;
4806;SDS011;2417;52.482;13.432;2023-06-26T07:50:30;24.13;;;6.80;;
4806;SDS011;2417;52.482;13.432;2023-06-26T07:52:58;23.43;;;7.07;;
4806;SDS011;2417;52.482;13.432;2023-06-26T07:55:26;25.47;;;6.67;;
4806;SDS011;2417;52.482;13.432;2023-06-26T07:57:54;21.60;;;6.53;;
4806;SDS011;2417;52.482;13.432;2023-06-26T08:00:21;22.67;;;6.60;;
4806;SDS011;2417;52.482;13.432;2023-06-26T08:02:52;25.37;;;6.80;;
4806;SDS011;2417;52.482;13.432;2023-06-26T08:05:21;22.87;;;6.80;;
4806;SDS011;2417;52.482;13.432;2023-06-26T08:07:52;22.00;;;6.27;;
4806;SDS011;2417;52.482;13.432;2023-06-26T08:10:20;25.40;;;6.90;;
4806;SDS011;2417;52.482;13.432;2023-06-26T08:12:48;22.70;;;5.93;;
4806;SDS011;2417;52.482;13.432;2023-06-26T08:15:17;21.83;;;5.70;;
4806;SDS011;2417;52.482;13.432;2023-06-26T08:17:44;24.80;;;6.03;;
4806;SDS011;2417;52.482;13.432;2023-06-26T08:20:12;21.90;;;5.33;;
4806;SDS011;2417;52.482;13.432;2023-06-26T08:22:42;22.87;;;5.80;;
4806;SDS011;2417;52.482;13.432;2023-06-26T08:25:11;24.13;;;5.80;;
4806;SDS011;2417;52.482;13.432;2023-06-26T08:27:39;25.37;;;6.50;;
4806;SDS011;2417;52.482;13.432;2023-06-26T08:30:07;23.27;;;6.17;;
4806;SDS011;2417;52.482;13.432;2023-06-26T08:32:35;21.50;;;5.50;;
4806;SDS011;2417;52.482;13.432;2023-06-26T08:35:05;24.27;;;6.10;;
4806;SDS011;2417;52.482;13.432;2023-06-26T08:37:33;26.30;;;5.50;;
4806;SDS011;2417;52.482;13.432;2023-06-26T08:40:04;23.73;;;5.23;;
4806;SDS011;2417;52.482;13.432;2023-06-26T08:42:32;21.77;;;5.13;;
4806;SDS011;2417;52.482;13.432;2023-06-26T08:45:00;22.23;;;4.73;;
4806;SDS011;2417;52.482;13.432;2023-06-26T08:47:30;21.77;;;4.63;;
4806;SDS011;2417;52.482;13.432;2023-06-26T08:50:03;21.23;;;4.47;;
4806;SDS011;2417;52.482;13.432;2023-06-26T08:52:33;21.50;;;4.57;;
4806;SDS011;2417;52.482;13.432;2023-06-26T08:55:06;21.87;;;4.47;;
4806;SDS011;2417;52.482;13.432;2023-06-26T08:57:36;20.90;;;4.20;;
4806;SDS011;2417;52.482;13.432;2023-06-26T09:00:05;24.97;;;4.10;;
4806;SDS011;2417;52.482;13.432;2023-06-26T09:02:35;23.90;;;4.83;;
4806;SDS011;2417;52.482;13.432;2023-06-26T09:05:03;22.63;;;3.93;;
4806;SDS011;2417;52.482;13.432;2023-06-26T09:07:32;21.30;;;4.27;;
4806;SDS011;2417;52.482;13.432;2023-06-26T09:10:00;21.80;;;4.20;;
4806;SDS011;2417;52.482;13.432;2023-06-26T09:12:29;21.93;;;4.60;;
4806;SDS011;2417;52.482;13.432;2023-06-26T09:14:58;22.47;;;4.47;;
4806;SDS011;2417;52.482;13.432;2023-06-26T09:17:28;23.00;;;4.07;;
4806;SDS011;2417;52.482;13.432;2023-06-26T09:19:58;26.70;;;4.97;;
4806;SDS011;2417;52.482;13.432;2023-06-26T09:22:26;24.40;;;4.73;;
4806;SDS011;2417;52.482;13.432;2023-06-26T09:24:54;26.13;;;4.77;;
4806;SDS011;2417;52.482;13.432;2023-06-26T09:27:22;22.80;;;5.00;;
4806;SDS011;2417;52.482;13.432;2023-06-26T09:29:51;22.87;;;4.57;;
4806;SDS011;2417;52.482;13.432;2023-06-26T09:32:19;20.97;;;3.90;;
4806;SDS011;2417;52.482;13.432;2023-06-26T09:34:48;21.00;;;4.07;;
4806;SDS011;2417;52.482;13.432;2023-06-26T09:37:20;22.70;;;4.87;;
4806;SDS011;2417;52.482;13.432;2023-06-26T09:39:48;22.00;;;4.63;;
4806;SDS011;2417;52.482;13.432;2023-06-26T09:42:16;23.40;;;5.30;;
4806;SDS011;2417;52.482;13.432;2023-06-26T09:44:44;21.50;;;4.27;;
4806;SDS011;2417;52.482;13.432;2023-06-26T09:47:13;21.83;;;4.70;;
4806;SDS011;2417;52.482;13.432;2023-06-26T09:49:43;22.03;;;3.97;;
4806;SDS011;2417;52.482;13.432;2023-06-26T09:52:11;29.10;;;4.57;;
4806;SDS011;2417;52.482;13.432;2023-06-26T09:54:42;22.00;;;4.83;;
4806;SDS011;2417;52.482;13.432;2023-06-26T09:57:11;26.20;;;5.00;;
4806;SDS011;2417;52.482;13.432;2023-06-26T09:59:40;22.83;;;4.00;;
4806;SDS011;2417;52.482;13.432;2023-06-26T10:02:08;22.37;;;4.90;;
4806;SDS011;2417;52.482;13.432;2023-06-26T10:04:39;24.90;;;4.90;;
4806;SDS011;2417;52.482;13.432;2023-06-26T10:07:08;26.37;;;4.97;;
4806;SDS011;2417;52.482;13.432;2023-06-26T10:09:40;25.70;;;4.57;;
4806;SDS011;2417;52.482;13.432;2023-06-26T10:12:10;27.13;;;3.67;;
4806;SDS011;2417;52.482;13.432;2023-06-26T10:14:39;20.90;;;4.00;;
4806;SDS011;2417;52.482;13.432;2023-06-26T10:17:15;22.47;;;5.20;;
4806;SDS011;2417;52.482;13.432;2023-06-26T10:19:45;20.87;;;4.00;;
4806;SDS011;2417;52.482;13.432;2023-06-26T10:22:15;20.80;;;3.97;;
4806;SDS011;2417;52.482;13.432;2023-06-26T10:24:45;24.43;;;4.50;;
4806;SDS011;2417;52.482;13.432;2023-06-26T10:27:14;21.90;;;4.10;;
4806;SDS011;2417;52.482;13.432;2023-06-26T10:29:43;21.47;;;3.77;;
4806;SDS011;2417;52.482;13.432;2023-06-26T10:32:30;21.63;;;4.10;;
4806;SDS011;2417;52.482;13.432;2023-06-26T10:35:05;22.17;;;4.40;;
4806;SDS011;2417;52.482;13.432;2023-06-26T10:37:42;20.37;;;3.30;;
4806;SDS011;2417;52.482;13.432;2023-06-26T10:40:12;20.60;;;3.70;;
4806;SDS011;2417;52.482;13.432;2023-06-26T10:42:40;23.10;;;3.20;;
4806;SDS011;2417;52.482;13.432;2023-06-26T10:45:13;20.73;;;3.60;;
4806;SDS011;2417;52.482;13.432;2023-06-26T10:47:41;21.17;;;3.57;;
4806;SDS011;2417;52.482;13.432;2023-06-26T10:50:17;21.37;;;3.70;;
4806;SDS011;2417;52.482;13.432;2023-06-26T10:53:07;24.50;;;3.70;;
4806;SDS011;2417;52.482;13.432;2023-06-26T10:55:35;22.30;;;4.53;;
4806;SDS011;2417;52.482;13.432;2023-06-26T10:58:03;20.90;;;3.67;;
4806;SDS011;2417;52.482;13.432;2023-06-26T11:00:31;24.03;;;3.70;;
4806;SDS011;2417;52.482;13.432;2023-06-26T11:03:00;25.13;;;4.30;;
4806;SDS011;2417;52.482;13.432;2023-06-26T11:05:32;23.40;;;3.67;;
4806;SDS011;2417;52.482;13.432;2023-06-26T11:08:04;21.67;;;4.30;;
4806;SDS011;2417;52.482;13.432;2023-06-26T11:10:50;25.20;;;4.83;;
4806;SDS011;2417;52.482;13.432;2023-06-26T11:13:21;23.57;;;4.67;;
4806;SDS011;2417;52.482;13.432;2023-06-26T11:15:49;24.50;;;5.10;;
4806;SDS011;2417;52.482;13.432;2023-06-26T11:18:17;20.77;;;3.90;;
4806;SDS011;2417;52.482;13.432;2023-06-26T11:20:48;23.20;;;4.80;;
4806;SDS011;2417;52.482;13.432;2023-06-26T11:23:18;20.87;;;3.90;;
4806;SDS011;2417;52.482;13.432;2023-06-26T11:25:49;21.40;;;4.27;;
4806;SDS011;2417;52.482;13.432;2023-06-26T11:28:17;22.00;;;4.67;;
4806;SDS011;2417;52.482;13.432;2023-06-26T11:30:45;21.87;;;4.47;;
4806;SDS011;2417;52.482;13.432;2023-06-26T11:33:14;23.17;;;4.20;;
4806;SDS011;2417;52.482;13.432;2023-06-26T11:35:42;25.83;;;4.57;;
4806;SDS011;2417;52.482;13.432;2023-06-26T11:38:13;21.67;;;4.53;;
4806;SDS011;2417;52.482;13.432;2023-06-26T11:40:45;21.90;;;4.10;;
4806;SDS011;2417;52.482;13.432;2023-06-26T11:43:13;22.77;;;4.40;;
4806;SDS011;2417;52.482;13.432;2023-06-26T11:45:42;23.03;;;4.50;;
4806;SDS011;2417;52.482;13.432;2023-06-26T11:48:10;22.87;;;4.30;;
4806;SDS011;2417;52.482;13.432;2023-06-26T11:50:39;21.50;;;4.20;;
4806;SDS011;2417;52.482;13.432;2023-06-26T11:53:07;22.10;;;4.60;;
4806;SDS011;2417;52.482;13.432;2023-06-26T11:55:41;24.00;;;4.40;;
4806;SDS011;2417;52.482;13.432;2023-06-26T11:58:09;22.47;;;4.03;;
4806;SDS011;2417;52.482;13.432;2023-06-26T12:00:41;22.70;;;5.00;;
4806;SDS011;2417;52.482;13.432;2023-06-26T12:03:10;24.90;;;4.87;;
4806;SDS011;2417;52.482;13.432;2023-06-26T12:05:38;28.40;;;5.60;;
4806;SDS011;2417;52.482;13.432;2023-06-26T12:08:07;24.03;;;4.87;;
4806;SDS011;2417;52.482;13.432;2023-06-26T12:10:35;24.10;;;5.00;;
4806;SDS011;2417;52.482;13.432;2023-06-26T12:13:06;24.37;;;5.27;;
4806;SDS011;2417;52.482;13.432;2023-06-26T12:15:35;23.30;;;4.97;;
4806;SDS011;2417;52.482;13.432;2023-06-26T12:18:07;26.00;;;5.00;;
4806;SDS011;2417;52.482;13.432;2023-06-26T12:20:39;24.33;;;4.70;;
4806;SDS011;2417;52.482;13.432;2023-06-26T12:23:11;22.40;;;4.57;;
4806;SDS011;2417;52.482;13.432;2023-06-26T12:25:39;22.73;;;4.80;;
4806;SDS011;2417;52.482;13.432;2023-06-26T12:28:16;25.07;;;4.80;;
4806;SDS011;2417;52.482;13.432;2023-06-26T12:30:49;25.90;;;5.27;;
4806;SDS011;2417;52.482;13.432;2023-06-26T12:33:39;25.60;;;5.70;;
4806;SDS011;2417;52.482;13.432;2023-06-26T12:36:10;26.10;;;5.67;;
4806;SDS011;2417;52.482;13.432;2023-06-26T12:38:38;25.70;;;5.27;;
4806;SDS011;2417;52.482;13.432;2023-06-26T12:41:06;26.27;;;6.33;;
4806;SDS011;2417;52.482;13.432;2023-06-26T12:43:40;24.40;;;5.47;;
4806;SDS011;2417;52.482;13.432;2023-06-26T12:46:08;23.40;;;5.13;;
4806;SDS011;2417;52.482;13.432;2023-06-26T12:48:37;26.40;;;5.93;;
4806;SDS011;2417;52.482;13.432;2023-06-26T12:51:08;27.33;;;5.57;;
4806;SDS011;2417;52.482;13.432;2023-06-26T12:53:36;25.73;;;6.23;;
4806;SDS011;2417;52.482;13.432;2023-06-26T12:56:06;25.97;;;6.27;;
4806;SDS011;2417;52.482;13.432;2023-06-26T12:58:34;23.87;;;5.47;;
4806;SDS011;2417;52.482;13.432;2023-06-26T13:01:04;25.77;;;5.90;;
4806;SDS011;2417;52.482;13.432;2023-06-26T13:03:34;25.37;;;6.10;;
4806;SDS011;2417;52.482;13.432;2023-06-26T13:06:02;26.23;;;6.37;;
4806;SDS011;2417;52.482;13.432;2023-06-26T13:08:30;25.10;;;6.23;;
4806;SDS011;2417;52.482;13.432;2023-06-26T13:10:58;26.03;;;6.40;;
4806;SDS011;2417;52.482;13.432;2023-06-26T13:13:26;26.50;;;6.80;;
4806;SDS011;2417;52.482;13.432;2023-06-26T13:15:54;26.70;;;6.70;;
4806;SDS011;2417;52.482;13.432;2023-06-26T13:18:24;26.27;;;6.57;;
4806;SDS011;2417;52.482;13.432;2023-06-26T13:20:53;26.50;;;6.63;;
4806;SDS011;2417;52.482;13.432;2023-06-26T13:23:21;27.17;;;6.63;;
4806;SDS011;2417;52.482;13.432;2023-06-26T13:25:50;29.67;;;7.60;;
4806;SDS011;2417;52.482;13.432;2023-06-26T13:28:18;29.57;;;7.07;;
4806;SDS011;2417;52.482;13.432;2023-06-26T13:30:46;30.03;;;7.30;;
4806;SDS011;2417;52.482;13.432;2023-06-26T13:33:14;31.03;;;6.97;;
4806;SDS011;2417;52.482;13.432;2023-06-26T13:35:44;28.67;;;7.17;;
4806;SDS011;2417;52.482;13.432;2023-06-26T13:38:12;27.60;;;7.10;;
4806;SDS011;2417;52.482;13.432;2023-06-26T13:40:40;27.70;;;6.93;;
4806;SDS011;2417;52.482;13.432;2023-06-26T13:43:08;29.77;;;7.47;;
4806;SDS011;2417;52.482;13.432;2023-06-26T13:45:36;29.60;;;7.40;;
4806;SDS011;2417;52.482;13.432;2023-06-26T13:48:05;28.50;;;7.00;;
4806;SDS011;2417;52.482;13.432;2023-06-26T13:50:33;28.20;;;7.67;;
4806;SDS011;2417;52.482;13.432;2023-06-26T13:53:43;28.97;;;7.07;;
4806;SDS011;2417;52.482;13.432;2023-06-26T13:56:10;29.10;;;7.90;;
4806;SDS011;2417;52.482;13.432;2023-06-26T13:58:38;28.23;;;7.67;;
4806;SDS011;2417;52.482;13.432;2023-06-26T14:01:06;26.80;;;7.30;;
4806;SDS011;2417;52.482;13.432;2023-06-26T14:03:34;29.13;;;8.43;;
4806;SDS011;2417;52.482;13.432;2023-06-26T14:06:03;29.90;;;9.53;;
4806;SDS011;2417;52.482;13.432;2023-06-26T14:08:31;33.90;;;8.50;;
4806;SDS011;2417;52.482;13.432;2023-06-26T14:11:01;30.47;;;7.60;;
4806;SDS011;2417;52.482;13.432;2023-06-26T14:13:29;30.77;;;8.17;;
4806;SDS011;2417;52.482;13.432;2023-06-26T14:15:57;30.90;;;8.13;;
4806;SDS011;2417;52.482;13.432;2023-06-26T14:18:25;31.57;;;7.67;;
4806;SDS011;2417;52.482;13.432;2023-06-26T14:20:54;30.87;;;7.57;;
4806;SDS011;2417;52.482;13.432;2023-06-26T14:23:23;34.90;;;8.63;;
4806;SDS011;2417;52.482;13.432;2023-06-26T14:25:51;34.23;;;7.40;;
4806;SDS011;2417;52.482;13.432;2023-06-26T14:28:21;40.30;;;6.90;;
4806;SDS011;2417;52.482;13.432;2023-06-26T14:30:49;33.50;;;7.47;;
4806;SDS011;2417;52.482;13.432;2023-06-26T14:33:17;36.57;;;9.37;;
4806;SDS011;2417;52.482;13.432;2023-06-26T14:35:45;29.47;;;7.00;;
4806;SDS011;2417;52.482;13.432;2023-06-26T14:38:12;23.50;;;6.83;;
4806;SDS011;2417;52.482;13.432;2023-06-26T14:40:40;29.87;;;8.10;;
4806;SDS011;2417;52.482;13.432;2023-06-26T14:43:09;50.57;;;10.50;;
4806;SDS011;2417;52.482;13.432;2023-06-26T14:45:39;31.40;;;11.70;;
4806;SDS011;2417;52.482;13.432;2023-06-26T14:48:07;27.17;;;11.13;;
4806;SDS011;2417;52.482;13.432;2023-06-26T14:50:35;30.63;;;12.10;;
4806;SDS011;2417;52.482;13.432;2023-06-26T14:53:03;33.70;;;13.77;;